Time;durP1;ratioP1;P1;durP2;ratioP2;P2;SDS_P1;SDS_P2;PMS_P1;PMS_P2;Temp;Humidity;BMP_temperature;BMP_pressure;BME280_temperature;BME280_humidity;BME280_pressure;Samples;Min_cycle;Max_cycle;Signal;HPM_P1;HPM_P2
2021/04/13 00:02:22;;;;;;;41.53;24.60;;;29.60;91.60;;;;;;5086516;28;20028;-48
2021/04/13 00:04:52;;;;;;;24.27;15.48;;;29.50;91.60;;;;;;5101054;28;20035;-47
2021/04/13 00:07:22;;;;;;;32.85;14.80;;;29.40;91.80;;;;;;5083579;28;20040;-51
2021/04/13 00:09:49;;;;;;;20.33;10.65;;;29.40;92.00;;;;;;5073893;28;20413;-53
2021/04/13 00:12:26;;;;;;;28.77;8.98;;;29.50;91.90;;;;;;5083145;28;20039;-51
2021/04/13 00:14:59;;;;;;;15.68;7.20;;;29.50;92.10;;;;;;5059815;28;20024;-53
2021/04/13 00:17:32;;;;;;;12.13;6.25;;;29.50;91.90;;;;;;5066701;28;20024;-49
2021/04/13 00:20:11;;;;;;;15.20;6.28;;;29.40;91.70;;;;;;5092429;28;20086;-56
2021/04/13 00:22:40;;;;;;;23.92;7.13;;;29.40;91.50;;;;;;5083753;28;20012;-52
2021/04/13 00:25:10;;;;;;;23.35;6.93;;;29.40;91.30;;;;;;5087895;28;20131;-54
2021/04/13 00:27:36;;;;;;;23.15;9.18;;;29.40;91.60;;;;;;5076423;28;20278;-49
2021/04/13 00:30:12;;;;;;;20.58;8.68;;;29.30;91.80;;;;;;5093010;28;20092;-49
2021/04/13 00:32:46;;;;;;;21.55;9.60;;;29.30;91.70;;;;;;5083496;28;20012;-58
2021/04/13 00:35:19;;;;;;;19.90;9.05;;;29.40;91.90;;;;;;5088719;28;20320;-52
2021/04/13 00:37:46;;;;;;;14.50;6.18;;;29.30;92.00;;;;;;5085907;28;20225;-47
2021/04/13 00:40:30;;;;;;;15.68;5.30;;;29.20;92.10;;;;;;5083954;28;20197;-52
2021/04/13 00:43:03;;;;;;;20.27;6.63;;;29.20;91.90;;;;;;5104008;28;20035;-52
2021/04/13 00:45:33;;;;;;;21.63;7.35;;;29.10;91.70;;;;;;5103515;28;20028;-56
2021/04/13 00:48:02;;;;;;;26.50;13.65;;;29.20;91.80;;;;;;5103817;28;20039;-52
2021/04/13 00:51:21;;;;;;;20.40;9.82;;;29.10;91.80;;;;;;5096008;28;20058;-53
2021/04/13 00:53:50;;;;;;;14.80;6.75;;;29.10;92.00;;;;;;5065641;28;20069;-50
2021/04/13 00:56:18;;;;;;;13.15;6.55;;;29.00;92.00;;;;;;5098912;28;20024;-50
2021/04/13 00:58:56;;;;;;;12.27;6.40;;;29.00;92.10;;;;;;5124177;28;20023;-48
2021/04/13 01:01:30;;;;;;;10.38;5.15;;;29.00;92.10;;;;;;5095458;28;20050;-48
2021/04/13 01:04:02;;;;;;;16.77;8.60;;;28.90;92.10;;;;;;5083593;28;20016;-45
2021/04/13 01:06:31;;;;;;;17.52;6.93;;;28.90;92.10;;;;;;5083045;28;20259;-53
2021/04/13 01:09:11;;;;;;;13.85;4.72;;;28.80;92.30;;;;;;5065438;28;20309;-50
2021/04/13 01:11:45;;;;;;;9.82;3.72;;;28.80;92.30;;;;;;5083047;28;20009;-49
2021/04/13 01:14:13;;;;;;;38.97;30.33;;;28.80;92.30;;;;;;5094144;28;20016;-51
2021/04/13 01:16:42;;;;;;;17.33;8.68;;;28.70;92.40;;;;;;5103381;28;20043;-54
2021/04/13 01:19:41;;;;;;;10.95;4.97;;;28.70;92.40;;;;;;5085272;28;20075;-45
2021/04/13 01:22:38;;;;;;;12.48;3.65;;;28.60;92.50;;;;;;5095847;28;20316;-50
2021/04/13 01:25:10;;;;;;;10.43;3.92;;;28.70;92.50;;;;;;5070298;28;20244;-53
2021/04/13 01:27:37;;;;;;;29.73;4.85;;;28.70;92.50;;;;;;5100127;28;20052;-48
2021/04/13 01:30:11;;;;;;;15.48;3.88;;;28.70;92.60;;;;;;5103552;28;20035;-48
2021/04/13 01:32:38;;;;;;;12.18;3.38;;;28.70;92.60;;;;;;5068746;28;20031;-46
2021/04/13 01:35:11;;;;;;;25.70;4.38;;;28.70;92.50;;;;;;5100670;28;20104;-46
2021/04/13 01:40:41;;;;;;;17.25;3.95;;;28.70;92.60;;;;;;5082684;28;20024;-48
2021/04/13 01:43:09;;;;;;;8.20;3.22;;;28.60;92.60;;;;;;5089028;28;20219;-45
2021/04/13 01:45:38;;;;;;;14.40;3.63;;;28.50;92.60;;;;;;5097907;28;20012;-54
2021/04/13 01:48:06;;;;;;;11.57;3.15;;;28.50;92.50;;;;;;5106881;28;20024;-50
2021/04/13 01:50:38;;;;;;;34.95;3.75;;;28.40;92.40;;;;;;5088917;28;20016;-51
2021/04/13 01:53:20;;;;;;;26.92;3.92;;;28.50;92.40;;;;;;5090438;28;20032;-52
2021/04/13 01:55:59;;;;;;;12.02;2.88;;;28.40;92.30;;;;;;5105441;28;20023;-50
2021/04/13 01:58:58;;;;;;;10.20;3.30;;;28.40;92.20;;;;;;5088346;28;20031;-51
2021/04/13 02:01:44;;;;;;;11.23;3.30;;;28.50;92.20;;;;;;5092124;28;20023;-58
2021/04/13 02:04:20;;;;;;;12.48;3.63;;;28.50;92.20;;;;;;5075923;28;20297;-54
2021/04/13 02:07:22;;;;;;;11.35;4.05;;;28.40;92.20;;;;;;5094129;28;20091;-51
2021/04/13 02:09:53;;;;;;;15.40;4.30;;;28.40;92.20;;;;;;5097128;28;20022;-54
2021/04/13 02:12:29;;;;;;;18.05;4.28;;;28.40;92.00;;;;;;5077339;28;20248;-48
2021/04/13 02:15:17;;;;;;;8.80;3.75;;;28.40;91.90;;;;;;5088011;28;20028;-50
2021/04/13 02:17:57;;;;;;;9.40;3.05;;;28.40;92.10;;;;;;5085810;28;20023;-49
2021/04/13 02:20:36;;;;;;;11.82;3.50;;;28.40;91.90;;;;;;5093181;28;20036;-47
2021/04/13 02:23:05;;;;;;;12.18;3.40;;;28.30;91.90;;;;;;5026748;28;20109;-47
2021/04/13 02:25:38;;;;;;;11.48;3.25;;;28.30;91.90;;;;;;5043399;28;20100;-50
2021/04/13 02:28:07;;;;;;;10.98;2.80;;;28.30;91.90;;;;;;5043138;28;20040;-52
2021/04/13 02:30:37;;;;;;;15.50;3.38;;;28.30;92.00;;;;;;5043295;28;20076;-48
2021/04/13 02:33:12;;;;;;;12.13;3.58;;;28.30;92.10;;;;;;5043414;28;20480;-46
2021/04/13 02:35:40;;;;;;;18.48;7.60;;;28.20;92.10;;;;;;5026436;28;20018;-54
2021/04/13 02:38:13;;;;;;;12.30;5.20;;;28.10;92.10;;;;;;5042479;28;20045;-48
2021/04/13 02:40:45;;;;;;;14.57;8.15;;;28.20;92.00;;;;;;5042344;28;20017;-50
2021/04/13 02:43:23;;;;;;;15.23;9.63;;;28.20;91.90;;;;;;5040613;28;20045;-48
2021/04/13 02:45:56;;;;;;;16.42;10.60;;;28.20;91.90;;;;;;5040843;28;20052;-49
2021/04/13 02:48:26;;;;;;;16.25;9.93;;;28.30;91.70;;;;;;5042632;28;20065;-47
2021/04/13 02:50:58;;;;;;;22.05;10.40;;;28.30;91.70;;;;;;5043189;28;20095;-49
2021/04/13 02:53:33;;;;;;;16.65;8.82;;;28.20;91.60;;;;;;5055147;28;20040;-47
2021/04/13 02:56:01;;;;;;;15.32;7.97;;;28.30;91.60;;;;;;5095667;28;20027;-48
2021/04/13 02:58:38;;;;;;;17.58;7.78;;;28.30;91.60;;;;;;5082717;28;20245;-51
2021/04/13 03:01:05;;;;;;;16.85;6.60;;;28.30;91.50;;;;;;5095249;28;20032;-51
2021/04/13 03:03:42;;;;;;;13.68;5.50;;;28.20;91.30;;;;;;5097254;28;20020;-48
2021/04/13 03:06:09;;;;;;;11.13;3.88;;;28.20;91.30;;;;;;5095583;28;20069;-48
2021/04/13 03:08:39;;;;;;;9.73;3.60;;;28.20;91.20;;;;;;5095775;28;20081;-45
2021/04/13 03:11:18;;;;;;;13.98;4.70;;;28.20;91.20;;;;;;5103023;28;20028;-47
2021/04/13 03:13:46;;;;;;;8.23;3.75;;;28.20;91.20;;;;;;5087058;28;20026;-46
2021/04/13 03:16:17;;;;;;;9.00;3.00;;;28.20;91.10;;;;;;5092480;28;20228;-48
2021/04/13 03:18:50;;;;;;;12.93;3.30;;;28.20;91.10;;;;;;5084242;28;20345;-46
2021/04/13 03:21:21;;;;;;;4.28;2.55;;;28.10;91.10;;;;;;5067494;28;20036;-50
2021/04/13 03:23:51;;;;;;;9.80;2.88;;;28.10;91.10;;;;;;5084538;28;20047;-56
2021/04/13 03:26:31;;;;;;;7.35;2.60;;;28.20;91.20;;;;;;5084582;28;20020;-50
2021/04/13 03:29:03;;;;;;;10.07;2.97;;;28.20;91.30;;;;;;5084717;28;20134;-49
2021/04/13 03:31:37;;;;;;;13.45;3.33;;;28.10;91.20;;;;;;5084233;28;20205;-50
2021/04/13 03:34:05;;;;;;;12.30;2.53;;;28.10;91.10;;;;;;5066351;28;20035;-48
2021/04/13 03:36:33;;;;;;;10.00;2.55;;;28.10;91.20;;;;;;5084220;28;20020;-55
2021/04/13 03:39:24;;;;;;;8.23;2.67;;;28.10;91.20;;;;;;5084045;28;20210;-45
2021/04/13 03:41:52;;;;;;;7.68;2.35;;;28.10;91.30;;;;;;5074088;28;20039;-57
2021/04/13 03:44:19;;;;;;;9.40;2.33;;;28.10;91.30;;;;;;5100718;28;20339;-51
2021/04/13 03:46:47;;;;;;;6.32;2.00;;;28.10;91.40;;;;;;5104230;28;20016;-51
2021/04/13 03:49:30;;;;;;;7.68;2.10;;;28.10;91.40;;;;;;5104415;28;20289;-51
2021/04/13 03:52:13;;;;;;;15.10;2.70;;;28.10;91.50;;;;;;5085809;28;20243;-49
2021/04/13 03:54:39;;;;;;;;;;;28.00;91.50;;;;;;5084317;28;20209;-47
2021/04/13 03:57:08;;;;;;;7.30;2.90;;;28.00;91.50;;;;;;5084225;28;19950;-49
2021/04/13 03:59:37;;;;;;;9.48;3.22;;;28.00;91.60;;;;;;5087126;28;20138;-48
2021/04/13 04:02:08;;;;;;;10.40;3.05;;;28.00;91.70;;;;;;5103737;28;20066;-51
2021/04/13 04:04:41;;;;;;;14.75;3.40;;;28.00;91.60;;;;;;5103713;28;20023;-49
2021/04/13 04:07:25;;;;;;;13.52;3.30;;;28.00;91.70;;;;;;5102293;28;20016;-50
2021/04/13 04:09:52;;;;;;;9.80;3.10;;;28.00;91.70;;;;;;5104703;28;20254;-46
2021/04/13 04:12:28;;;;;;;8.40;3.00;;;28.00;91.70;;;;;;5104214;28;20335;-49
2021/04/13 04:15:13;;;;;;;11.07;3.38;;;27.90;91.60;;;;;;5104492;28;20241;-51
2021/04/13 04:17:50;;;;;;;9.52;2.50;;;27.90;91.70;;;;;;5083625;28;20077;-48
2021/04/13 04:20:17;;;;;;;6.15;2.30;;;27.90;92.00;;;;;;5103708;28;20040;-48
2021/04/13 04:22:49;;;;;;;11.48;2.63;;;27.80;91.70;;;;;;5103500;28;20024;-49
2021/04/13 04:25:20;;;;;;;7.85;2.35;;;27.80;91.70;;;;;;5103996;28;20008;-49
2021/04/13 04:27:52;;;;;;;10.00;2.58;;;27.80;91.70;;;;;;5086879;28;20024;-48
2021/04/13 04:30:25;;;;;;;8.48;2.00;;;27.80;91.70;;;;;;5104077;28;20062;-48
2021/04/13 04:32:53;;;;;;;10.60;2.22;;;27.80;91.80;;;;;;5103894;28;20028;-48
2021/04/13 04:35:37;;;;;;;9.63;2.22;;;27.80;91.80;;;;;;5103854;28;20089;-47
2021/04/13 04:38:24;;;;;;;9.02;2.22;;;27.80;91.80;;;;;;5103759;28;20023;-48
2021/04/13 04:40:54;;;;;;;11.35;2.35;;;27.70;91.80;;;;;;5103833;28;20369;-48
2021/04/13 04:43:52;;;;;;;7.75;2.22;;;27.70;91.80;;;;;;5103787;28;20020;-47
2021/04/13 04:46:40;;;;;;;7.95;2.38;;;27.70;91.70;;;;;;5103685;28;20027;-47
2021/04/13 04:49:11;;;;;;;6.10;2.15;;;27.70;91.60;;;;;;5104071;28;20033;-47
2021/04/13 04:51:39;;;;;;;9.32;2.50;;;27.70;91.50;;;;;;5103659;28;20020;-44
2021/04/13 04:54:06;;;;;;;5.90;2.28;;;27.70;91.60;;;;;;5104189;28;20020;-46
2021/04/13 04:56:33;;;;;;;8.45;2.00;;;27.70;91.60;;;;;;5103794;28;20016;-44
2021/04/13 04:59:00;;;;;;;9.30;1.88;;;27.70;91.60;;;;;;5103787;28;20047;-47
2021/04/13 05:01:27;;;;;;;5.88;1.83;;;27.70;91.60;;;;;;5085768;28;20087;-44
2021/04/13 05:03:53;;;;;;;6.93;2.08;;;27.60;91.60;;;;;;5103975;28;20028;-50
2021/04/13 05:06:21;;;;;;;4.55;2.13;;;27.60;91.60;;;;;;5103656;28;20020;-48
2021/04/13 05:08:48;;;;;;;5.63;1.42;;;27.60;91.60;;;;;;5085822;28;20081;-48
2021/04/13 05:11:14;;;;;;;6.65;1.90;;;27.60;91.60;;;;;;5103685;28;20293;-48
2021/04/13 05:13:41;;;;;;;14.57;2.45;;;27.60;91.60;;;;;;5103732;28;20087;-45
2021/04/13 05:16:08;;;;;;;11.25;2.42;;;27.50;91.60;;;;;;5103554;28;20020;-45
2021/04/13 05:18:35;;;;;;;10.50;2.08;;;27.50;91.60;;;;;;5104715;28;20040;-52
2021/04/13 05:21:01;;;;;;;11.45;2.10;;;27.50;91.70;;;;;;5107252;28;20216;-52
2021/04/13 05:23:28;;;;;;;13.77;2.13;;;27.60;91.60;;;;;;5107564;28;20304;-48
2021/04/13 05:25:55;;;;;;;13.10;2.60;;;27.60;91.40;;;;;;5107299;28;20365;-52
2021/04/13 05:28:22;;;;;;;11.48;2.90;;;27.60;91.40;;;;;;5107327;28;20313;-47
2021/04/13 05:30:50;;;;;;;11.75;2.53;;;27.50;91.40;;;;;;5089175;28;20065;-48
2021/04/13 05:33:19;;;;;;;14.40;2.58;;;27.50;91.40;;;;;;5107290;28;20028;-49
2021/04/13 05:35:46;;;;;;;14.20;2.67;;;27.50;91.40;;;;;;5107081;28;20028;-47
2021/04/13 05:38:20;;;;;;;12.02;2.50;;;27.50;91.50;;;;;;5107178;28;20027;-50
2021/04/13 05:40:47;;;;;;;8.77;2.00;;;27.50;91.50;;;;;;5107116;28;20243;-53
2021/04/13 05:43:16;;;;;;;17.08;2.75;;;27.50;91.50;;;;;;5106929;28;20032;-48
2021/04/13 05:45:45;;;;;;;15.07;2.78;;;27.50;91.50;;;;;;5106990;28;20011;-52
2021/04/13 05:48:12;;;;;;;23.30;3.10;;;27.50;91.50;;;;;;5106885;28;20039;-47
2021/04/13 05:50:41;;;;;;;14.30;2.50;;;27.40;91.50;;;;;;5106688;28;20027;-49
2021/04/13 05:53:08;;;;;;;14.50;2.60;;;27.40;91.60;;;;;;5106927;28;20391;-48
2021/04/13 05:55:37;;;;;;;13.50;2.33;;;27.40;91.60;;;;;;5106778;28;20031;-47
2021/04/13 05:58:17;;;;;;;15.70;2.40;;;27.40;91.70;;;;;;5106627;28;20027;-47
2021/04/13 06:00:45;;;;;;;20.52;2.78;;;27.40;91.80;;;;;;5106604;28;20016;-48
2021/04/13 06:03:16;;;;;;;13.45;2.60;;;27.30;91.80;;;;;;5106596;28;20027;-54
2021/04/13 06:05:43;;;;;;;12.30;2.70;;;27.30;91.90;;;;;;5106867;28;20016;-47
2021/04/13 06:08:13;;;;;;;8.18;2.97;;;27.40;92.10;;;;;;5106695;28;20048;-52
2021/04/13 06:10:41;;;;;;;15.05;3.30;;;27.30;92.10;;;;;;5106377;28;20327;-53
2021/04/13 06:13:08;;;;;;;10.23;3.00;;;27.40;92.20;;;;;;5106528;28;20073;-48
2021/04/13 06:15:35;;;;;;;12.02;3.45;;;27.30;92.30;;;;;;5106598;28;20121;-48
2021/04/13 06:18:01;;;;;;;10.13;2.95;;;27.30;92.30;;;;;;5105982;28;20366;-53
2021/04/13 06:20:29;;;;;;;10.93;3.05;;;27.30;92.30;;;;;;5106167;28;20073;-48
2021/04/13 06:23:00;;;;;;;7.82;2.60;;;27.30;92.30;;;;;;5106205;28;20039;-48
2021/04/13 06:25:30;;;;;;;9.38;2.92;;;27.30;92.30;;;;;;5106389;28;20292;-47
2021/04/13 06:27:57;;;;;;;10.13;2.85;;;27.30;92.40;;;;;;5106195;28;20016;-48
2021/04/13 06:30:25;;;;;;;10.75;2.80;;;27.20;92.30;;;;;;5105505;28;20019;-50
2021/04/13 06:32:53;;;;;;;6.00;2.40;;;27.30;92.40;;;;;;5106132;28;20189;-51
2021/04/13 06:35:21;;;;;;;10.10;2.78;;;27.30;92.40;;;;;;5106032;28;20070;-51
2021/04/13 06:37:50;;;;;;;13.60;2.80;;;27.20;92.40;;;;;;5106939;28;20040;-55
2021/04/13 06:40:28;;;;;;;12.65;2.80;;;27.30;92.40;;;;;;5105924;28;20019;-48
2021/04/13 06:43:27;;;;;;;9.48;2.60;;;27.30;92.40;;;;;;5105975;28;20016;-50
2021/04/13 06:46:12;;;;;;;14.18;3.05;;;27.20;92.40;;;;;;5105917;28;20066;-55
2021/04/13 06:49:22;;;;;;;11.82;3.00;;;27.30;92.30;;;;;;5106266;28;20047;-51
2021/04/13 06:52:12;;;;;;;19.73;3.00;;;27.20;92.30;;;;;;5004303;28;20341;-48
2021/04/13 06:54:43;;;;;;;9.85;3.20;;;27.20;92.30;;;;;;5007454;28;20022;-55
2021/04/13 06:57:19;;;;;;;11.68;3.28;;;27.20;92.30;;;;;;5092629;28;20032;-49
2021/04/13 07:00:18;;;;;;;8.57;2.55;;;27.20;92.40;;;;;;5126531;28;20099;-48
2021/04/13 07:03:29;;;;;;;13.95;2.42;;;27.10;92.40;;;;;;5091608;28;20028;-48
2021/04/13 07:06:29;;;;;;;10.52;2.67;;;27.10;92.40;;;;;;5126005;28;20015;-56
2021/04/13 07:09:17;;;;;;;10.38;2.78;;;27.10;92.50;;;;;;5126079;28;20057;-49
2021/04/13 07:12:10;;;;;;;14.07;2.47;;;27.10;92.40;;;;;;5125651;28;20023;-48
2021/04/13 07:14:46;;;;;;;6.57;2.65;;;27.10;92.40;;;;;;5126058;28;20020;-58
2021/04/13 07:17:23;;;;;;;9.48;2.70;;;27.10;92.30;;;;;;5125746;28;20019;-50
2021/04/13 07:20:08;;;;;;;8.00;2.50;;;27.00;92.30;;;;;;5125351;28;20048;-50
2021/04/13 07:22:55;;;;;;;7.72;2.50;;;27.00;92.30;;;;;;5125581;28;20022;-49
2021/04/13 07:25:29;;;;;;;10.35;2.45;;;27.00;92.20;;;;;;5125386;28;20039;-51
2021/04/13 07:28:03;;;;;;;8.73;2.67;;;27.00;92.20;;;;;;5125492;28;20015;-44
2021/04/13 07:30:38;;;;;;;6.75;2.55;;;27.00;92.20;;;;;;5125316;28;20047;-53
2021/04/13 07:33:06;;;;;;;13.90;2.30;;;27.00;92.20;;;;;;5125543;28;20116;-50
2021/04/13 07:35:36;;;;;;;14.63;2.30;;;27.00;92.20;;;;;;5125395;28;20031;-48
2021/04/13 07:38:11;;;;;;;11.82;2.35;;;27.00;92.30;;;;;;5125068;28;20200;-48
2021/04/13 07:40:46;;;;;;;12.25;2.35;;;26.90;92.30;;;;;;5124412;28;20019;-49
2021/04/13 07:43:47;;;;;;;6.28;2.08;;;26.90;92.30;;;;;;5125038;28;20208;-48
2021/04/13 07:46:44;;;;;;;9.75;2.20;;;26.90;92.30;;;;;;5110915;28;20088;-49
2021/04/13 07:49:40;;;;;;;7.68;2.10;;;26.90;92.30;;;;;;5119155;28;20023;-52
2021/04/13 07:52:28;;;;;;;12.57;2.30;;;26.90;92.30;;;;;;5083808;28;20221;-48
2021/04/13 07:55:21;;;;;;;11.48;1.90;;;26.90;92.30;;;;;;5125403;28;20031;-48
2021/04/13 07:57:56;;;;;;;9.45;2.03;;;26.90;92.30;;;;;;5124481;28;20220;-49
2021/04/13 08:00:30;;;;;;;8.45;2.13;;;26.90;92.30;;;;;;5124901;28;20023;-52
2021/04/13 08:03:13;;;;;;;9.80;2.53;;;26.80;92.30;;;;;;5124740;28;20022;-55
2021/04/13 08:05:44;;;;;;;9.20;2.08;;;26.80;92.30;;;;;;5124806;28;20023;-49
2021/04/13 08:08:29;;;;;;;7.80;1.90;;;26.80;92.30;;;;;;5124847;28;20027;-49
2021/04/13 08:11:15;;;;;;;9.85;2.10;;;26.80;92.30;;;;;;5124950;28;20219;-48
2021/04/13 08:13:47;;;;;;;9.02;2.28;;;26.80;92.20;;;;;;5124792;28;20026;-50
2021/04/13 08:16:36;;;;;;;12.63;2.50;;;26.80;92.20;;;;;;5124785;28;20030;-48
2021/04/13 08:19:26;;;;;;;12.93;2.30;;;26.80;92.20;;;;;;5124278;28;20052;-50
2021/04/13 08:22:06;;;;;;;10.18;2.30;;;26.80;92.10;;;;;;5124681;28;20012;-48
2021/04/13 08:24:41;;;;;;;10.10;2.30;;;26.80;92.40;;;;;;5124658;28;20091;-50
2021/04/13 08:27:23;;;;;;;11.43;2.13;;;26.80;92.20;;;;;;5124535;28;20083;-49
2021/04/13 08:30:28;;;;;;;14.30;2.10;;;26.80;92.10;;;;;;5124980;28;20365;-57
2021/04/13 08:33:17;;;;;;;7.97;2.42;;;26.80;92.10;;;;;;5042014;28;20033;-52
2021/04/13 08:36:15;;;;;;;8.98;2.78;;;26.70;92.20;;;;;;5111134;28;20219;-49
2021/04/13 08:39:01;;;;;;;15.88;4.03;;;26.70;92.30;;;;;;5118707;28;20031;-49
2021/04/13 08:42:09;;;;;;;14.82;4.10;;;26.70;92.30;;;;;;5124405;28;20095;-50
2021/04/13 08:44:46;;;;;;;12.90;3.92;;;26.70;92.30;;;;;;5124592;28;20072;-48
2021/04/13 08:47:20;;;;;;;11.30;3.55;;;26.60;92.40;;;;;;5124179;28;20083;-54
2021/04/13 08:49:49;;;;;;;12.50;4.05;;;26.60;92.40;;;;;;5124586;28;20035;-48
2021/04/13 08:52:37;;;;;;;11.07;3.72;;;26.60;92.40;;;;;;5125570;28;20020;-50
2021/04/13 08:55:16;;;;;;;8.23;3.38;;;26.60;92.50;;;;;;5128901;28;20023;-52
2021/04/13 08:57:46;;;;;;;9.23;2.97;;;26.60;92.40;;;;;;5128226;28;20019;-58
2021/04/13 09:00:45;;;;;;;14.68;3.17;;;26.60;92.40;;;;;;5128300;28;20124;-44
2021/04/13 09:03:18;;;;;;;11.32;3.22;;;26.60;92.40;;;;;;5128105;28;20027;-51
2021/04/13 09:05:48;;;;;;;7.95;2.63;;;26.60;92.40;;;;;;5128171;28;20024;-52
2021/04/13 09:08:33;;;;;;;12.20;2.58;;;26.60;92.50;;;;;;5128186;28;20016;-49
2021/04/13 09:11:18;;;;;;;13.75;2.42;;;26.60;92.40;;;;;;5128223;28;20015;-49
2021/04/13 09:14:04;;;;;;;9.43;2.20;;;26.60;92.50;;;;;;5128115;28;20189;-51
2021/04/13 09:16:35;;;;;;;13.55;2.40;;;26.60;92.50;;;;;;5127975;28;20035;-49
2021/04/13 09:19:08;;;;;;;12.45;2.65;;;26.60;92.50;;;;;;5127670;28;20106;-48
2021/04/13 09:21:50;;;;;;;10.30;2.25;;;26.60;92.50;;;;;;5127886;28;20017;-48
2021/04/13 09:24:43;;;;;;;11.32;2.40;;;26.50;92.50;;;;;;5128102;28;20035;-49
2021/04/13 09:27:16;;;;;;;9.48;2.40;;;26.50;92.50;;;;;;5124048;28;20024;-52
2021/04/13 09:29:56;;;;;;;9.00;2.58;;;26.50;92.50;;;;;;5128127;28;20212;-49
2021/04/13 09:32:26;;;;;;;15.90;2.92;;;26.50;92.50;;;;;;5127631;28;20050;-47
2021/04/13 09:34:59;;;;;;;9.65;2.25;;;26.50;92.50;;;;;;5127975;28;20032;-49
2021/04/13 09:38:03;;;;;;;8.43;2.38;;;26.50;92.50;;;;;;5127824;28;20027;-53
2021/04/13 09:40:51;;;;;;;7.80;2.17;;;26.50;92.60;;;;;;5127704;28;20308;-57
2021/04/13 09:43:26;;;;;;;9.25;2.25;;;26.40;92.50;;;;;;5127407;28;20334;-45
2021/04/13 09:45:53;;;;;;;7.57;2.40;;;26.40;92.60;;;;;;5127440;28;20012;-44
2021/04/13 09:48:49;;;;;;;9.60;2.00;;;26.40;92.50;;;;;;5127443;28;20060;-46
2021/04/13 09:51:34;;;;;;;9.60;2.30;;;26.40;92.60;;;;;;5127284;28;20078;-49
2021/04/13 09:54:38;;;;;;;8.90;2.47;;;26.40;92.60;;;;;;5127760;28;20038;-54
2021/04/13 09:57:11;;;;;;;12.07;2.30;;;26.30;92.60;;;;;;5085791;28;20023;-49
2021/04/13 09:59:43;;;;;;;;;;;26.30;92.60;;;;;;5127998;28;20038;-49
2021/04/13 10:02:35;;;;;;;9.10;2.63;;;26.40;92.60;;;;;;5126982;28;19907;-50
2021/04/13 10:05:13;;;;;;;17.45;2.60;;;26.30;92.60;;;;;;5126528;28;20381;-50
2021/04/13 10:07:51;;;;;;;8.57;2.50;;;26.30;92.70;;;;;;5126989;28;20020;-57
2021/04/13 10:10:42;;;;;;;11.15;2.95;;;26.30;92.60;;;;;;5127205;28;20035;-50
2021/04/13 10:13:30;;;;;;;14.45;3.55;;;26.30;92.60;;;;;;5127096;28;20031;-49
2021/04/13 10:16:05;;;;;;;14.35;3.60;;;26.30;92.70;;;;;;5126807;28;20020;-49
2021/04/13 10:19:16;;;;;;;9.50;3.63;;;26.30;92.70;;;;;;5126554;28;20382;-45
2021/04/13 10:22:09;;;;;;;7.97;3.50;;;26.30;92.70;;;;;;5095525;28;20050;-46
2021/04/13 10:24:56;;;;;;;8.27;3.30;;;26.30;92.70;;;;;;5127058;28;20057;-48
2021/04/13 10:27:31;;;;;;;11.70;3.10;;;26.30;92.80;;;;;;5126499;28;20039;-48
2021/04/13 10:30:16;;;;;;;10.93;3.20;;;26.30;92.80;;;;;;5127187;28;20020;-48
2021/04/13 10:33:03;;;;;;;9.77;2.85;;;26.30;92.80;;;;;;5126234;28;20015;-47
2021/04/13 10:35:58;;;;;;;10.77;3.00;;;26.30;92.80;;;;;;5126369;28;20019;-49
2021/04/13 10:38:30;;;;;;;12.73;2.95;;;26.30;92.90;;;;;;5126478;28;20026;-50
2021/04/13 10:41:34;;;;;;;8.02;3.03;;;26.30;92.90;;;;;;5126077;28;20026;-51
2021/04/13 10:44:31;;;;;;;13.80;3.25;;;26.30;93.00;;;;;;5126452;28;20196;-57
2021/04/13 10:47:41;;;;;;;10.68;3.30;;;26.30;93.00;;;;;;5126667;28;20035;-50
2021/04/13 10:50:32;;;;;;;10.57;3.15;;;26.30;93.10;;;;;;5126256;28;20019;-48
2021/04/13 10:53:19;;;;;;;10.75;3.10;;;26.30;93.10;;;;;;5126295;28;20050;-47
2021/04/13 10:56:10;;;;;;;10.43;3.03;;;26.30;93.10;;;;;;5125987;28;20086;-53
2021/04/13 10:58:56;;;;;;;10.80;3.38;;;26.40;93.10;;;;;;5126211;28;20023;-56
2021/04/13 11:01:40;;;;;;;11.65;3.75;;;26.40;93.20;;;;;;5126128;28;20037;-49
2021/04/13 11:04:39;;;;;;;19.40;3.20;;;26.40;93.20;;;;;;5126146;28;20057;-55
2021/04/13 11:08:11;;;;;;;11.52;4.28;;;26.40;93.20;;;;;;5125640;28;20039;-45
2021/04/13 11:11:14;;;;;;;14.88;4.50;;;26.40;93.30;;;;;;5043163;28;20029;-48
2021/04/13 11:14:22;;;;;;;12.75;4.22;;;26.40;93.30;;;;;;5043105;28;20029;-52
2021/04/13 11:17:18;;;;;;;10.05;3.83;;;26.40;93.40;;;;;;5125392;28;20027;-55
2021/04/13 11:20:18;;;;;;;15.98;4.50;;;26.40;93.40;;;;;;5089186;28;20111;-49
2021/04/13 11:23:03;;;;;;;38.40;6.28;;;26.40;93.40;;;;;;5107247;28;20039;-48
2021/04/13 11:25:32;;;;;;;26.65;5.10;;;26.40;93.50;;;;;;5125492;28;20074;-47
2021/04/13 11:28:36;;;;;;;14.13;4.20;;;26.50;93.50;;;;;;5125843;28;20035;-48
2021/04/13 11:31:19;;;;;;;11.00;3.80;;;26.50;93.50;;;;;;5125337;28;20079;-53
2021/04/13 11:34:04;;;;;;;11.75;3.60;;;26.50;93.50;;;;;;5125277;28;20023;-48
2021/04/13 11:36:33;;;;;;;15.68;4.10;;;26.60;93.50;;;;;;5125261;28;20426;-49
2021/04/13 11:39:07;;;;;;;12.48;3.67;;;26.60;93.50;;;;;;5125014;28;20093;-54
2021/04/13 11:42:08;;;;;;;10.68;4.22;;;26.60;93.50;;;;;;5125138;28;20034;-47
2021/04/13 11:44:59;;;;;;;10.38;4.53;;;26.60;93.50;;;;;;5125412;28;20022;-49
2021/04/13 11:47:50;;;;;;;12.90;4.13;;;26.70;93.50;;;;;;5125120;28;20027;-52
2021/04/13 11:50:29;;;;;;;18.27;3.72;;;26.80;93.50;;;;;;5125105;28;20039;-55
2021/04/13 11:53:11;;;;;;;9.98;4.00;;;26.80;93.40;;;;;;5124877;28;20015;-58
2021/04/13 11:55:44;;;;;;;9.57;4.32;;;26.90;93.40;;;;;;5124844;28;20379;-54
2021/04/13 11:58:24;;;;;;;9.23;3.97;;;27.00;93.30;;;;;;5124929;28;20248;-50
2021/04/13 12:01:12;;;;;;;10.60;3.78;;;27.00;93.10;;;;;;5124699;28;20026;-49
2021/04/13 12:03:58;;;;;;;9.50;3.80;;;27.10;93.10;;;;;;5124946;28;20026;-48
2021/04/13 12:07:05;;;;;;;11.55;4.03;;;27.20;92.90;;;;;;5124606;28;20087;-54
2021/04/13 12:10:02;;;;;;;7.00;3.38;;;27.20;92.80;;;;;;5123375;28;20038;-59
2021/04/13 12:12:32;;;;;;;10.88;4.13;;;27.30;92.70;;;;;;5124577;28;20039;-49
2021/04/13 12:15:07;;;;;;;11.35;4.60;;;27.40;92.40;;;;;;5125056;28;20023;-48
2021/04/13 12:17:45;;;;;;;10.00;3.92;;;27.40;92.40;;;;;;5124595;28;20015;-49
2021/04/13 12:20:28;;;;;;;8.27;4.07;;;27.50;92.20;;;;;;5124350;28;20088;-50
2021/04/13 12:23:04;;;;;;;4.60;3.92;;;27.60;92.00;;;;;;5124898;28;20015;-52
2021/04/13 12:25:37;;;;;;;6.75;4.00;;;27.60;92.00;;;;;;5107487;28;20039;-51
2021/04/13 12:28:12;;;;;;;8.60;3.78;;;27.50;92.10;;;;;;5106077;28;20192;-50
2021/04/13 12:30:42;;;;;;;6.20;4.05;;;27.50;92.10;;;;;;5124302;28;20019;-48
2021/04/13 12:33:32;;;;;;;6.90;4.15;;;27.60;92.10;;;;;;5124577;28;20024;-53
2021/04/13 12:36:02;;;;;;;5.75;4.38;;;27.60;92.00;;;;;;5124576;28;20224;-51
2021/04/13 12:38:37;;;;;;;8.52;4.38;;;27.70;92.00;;;;;;5124560;28;20022;-54
2021/04/13 12:41:27;;;;;;;11.15;4.78;;;27.70;91.90;;;;;;5124374;28;20027;-57
2021/04/13 12:44:22;;;;;;;10.65;4.60;;;27.70;91.80;;;;;;5124639;28;20015;-53
2021/04/13 12:46:56;;;;;;;9.85;4.72;;;27.80;91.90;;;;;;5124228;28;20080;-54
2021/04/13 12:49:43;;;;;;;8.40;4.55;;;27.90;91.50;;;;;;5106339;28;20241;-50
2021/04/13 12:52:21;;;;;;;10.95;4.47;;;27.90;91.30;;;;;;5124197;28;20049;-56
2021/04/13 12:54:47;;;;;;;16.80;5.32;;;28.00;91.40;;;;;;5125463;28;20323;-54
2021/04/13 12:57:19;;;;;;;10.05;4.63;;;28.00;91.40;;;;;;5107462;28;20275;-55
2021/04/13 12:59:48;;;;;;;10.90;4.30;;;28.10;91.20;;;;;;5124711;28;20095;-48
2021/04/13 13:02:38;;;;;;;9.43;4.40;;;28.20;91.10;;;;;;5124153;28;20027;-52
2021/04/13 13:05:27;;;;;;;13.82;4.70;;;28.20;90.90;;;;;;5124609;28;20015;-51
2021/04/13 13:08:02;;;;;;;7.30;4.32;;;28.20;90.90;;;;;;5124166;28;20264;-50
2021/04/13 13:10:40;;;;;;;7.82;4.20;;;28.30;91.00;;;;;;5123971;28;20023;-56
2021/04/13 13:13:28;;;;;;;10.43;4.68;;;28.30;90.90;;;;;;5124321;28;20023;-56
2021/04/13 13:15:56;;;;;;;8.48;3.97;;;28.20;90.90;;;;;;5123965;28;20028;-57
2021/04/13 13:18:32;;;;;;;7.50;4.38;;;28.20;90.90;;;;;;5105911;28;20047;-62
2021/04/13 13:21:02;;;;;;;10.05;5.50;;;28.20;90.70;;;;;;5123815;28;20012;-50
2021/04/13 13:23:38;;;;;;;6.85;4.85;;;28.20;90.90;;;;;;5123897;28;20076;-53
2021/04/13 13:26:26;;;;;;;7.47;4.68;;;28.20;90.80;;;;;;5124001;28;20316;-49
2021/04/13 13:28:52;;;;;;;6.18;4.80;;;28.20;90.70;;;;;;5124113;28;20027;-50
2021/04/13 13:31:27;;;;;;;7.68;4.60;;;28.20;90.80;;;;;;5123879;28;20078;-49
2021/04/13 13:34:25;;;;;;;7.53;4.70;;;28.20;90.80;;;;;;5124155;28;20069;-50
2021/04/13 13:36:52;;;;;;;7.22;5.30;;;28.20;90.70;;;;;;5106352;28;20031;-54
2021/04/13 13:39:29;;;;;;;11.35;5.05;;;28.20;90.60;;;;;;5125079;28;20027;-51
2021/04/13 13:42:04;;;;;;;6.80;4.85;;;28.20;90.60;;;;;;5127436;28;20023;-56